.
WxDataArchive / Data Records for 2010-02-09
2010-02-08 February 2010 2010-02-10

Data Records for Tuesday, 09 February 2010

Time	Temp	Chill	HIndex	Humid	Dewpt	 Wind 	HiWind	WindDir	Rain 	Barom 
-----	----	-----	------	-----	-----	------	------	-------	-----	----- 
00:00	21.6	21.6	21.6	72	14.0	2	9	90	0.00	30.166 
00:05	21.6	21.6	21.6	72	14.0	1	3	90	0.00	30.166 
00:10	21.8	21.8	21.8	71	13.9	1	4	112	0.00	30.166 
00:15	21.8	21.8	21.8	70	13.5	2	7	90	0.00	30.156 
00:20	21.9	21.9	21.9	70	13.6	2	5	112	0.00	30.156 
00:25	21.9	21.9	21.9	71	14.0	2	4	90	0.00	30.156 
00:30	21.9	21.9	21.9	70	13.6	3	5	90	0.00	30.153 
00:35	21.9	21.9	21.9	71	14.0	2	5	112	0.00	30.153 
00:40	21.9	21.9	21.9	71	14.0	2	5	112	0.00	30.153 
00:45	22.1	22.1	22.1	71	14.2	2	4	90	0.00	30.153 
00:50	22.1	22.1	22.1	71	14.2	2	6	90	0.00	30.153 
00:55	22.1	22.1	22.1	71	14.2	2	5	90	0.00	30.153 
01:00	22.1	22.1	22.1	71	14.2	2	4	90	0.00	30.153 
01:05	22.2	22.2	22.2	71	14.3	2	5	112	0.00	30.153 
01:10	22.1	22.1	22.1	71	14.2	2	5	90	0.00	30.153 
01:15	22.1	22.1	22.1	72	14.5	1	5	112	0.00	30.142 
01:20	22.1	22.1	22.1	72	14.5	2	5	90	0.00	30.142 
01:25	22.1	22.1	22.1	72	14.5	2	5	90	0.00	30.142 
01:30	22.1	22.1	22.1	72	14.5	2	5	90	0.00	30.137 
01:35	22.1	22.1	22.1	71	14.2	2	6	90	0.00	30.137 
01:40	22.1	22.1	22.1	71	14.2	2	6	112	0.00	30.137 
01:45	22.1	22.1	22.1	71	14.2	2	7	90	0.00	30.132 
01:50	22.1	22.1	22.1	71	14.2	2	5	90	0.00	30.132 
01:55	22.2	22.2	22.2	70	13.9	2	6	112	0.00	30.132 
02:00	22.2	22.2	22.2	69	13.6	3	6	90	0.00	30.129 
02:05	22.4	22.4	22.4	69	13.8	3	6	90	0.00	30.129 
02:10	22.4	22.4	22.4	69	13.8	2	5	90	0.00	30.129 
02:15	22.5	22.5	22.5	69	13.9	3	5	90	0.00	30.129 
02:20	22.5	22.5	22.5	70	14.2	2	5	90	0.00	30.129 
02:25	22.5	22.5	22.5	70	14.2	2	5	90	0.00	30.129 
02:30	22.5	22.5	22.5	70	14.2	2	6	90	0.00	30.122 
02:35	22.5	22.5	22.5	69	13.9	3	5	90	0.00	30.122 
02:40	22.5	22.5	22.5	69	13.9	2	5	90	0.00	30.122 
02:45	22.5	22.5	22.5	69	13.9	3	6	90	0.00	30.120 
02:50	22.5	22.5	22.5	69	13.9	2	4	112	0.00	30.120 
02:55	22.5	22.5	22.5	68	13.6	2	4	90	0.00	30.120 
03:00	22.5	22.5	22.5	67	13.2	3	6	90	0.00	30.117 
03:05	22.5	22.5	22.5	68	13.6	3	7	90	0.00	30.117 
03:10	22.5	17.1	22.5	68	13.6	4	8	90	0.00	30.117 
03:15	22.5	17.1	22.5	68	13.6	4	10	112	0.00	30.104 
03:20	22.5	22.5	22.5	68	13.6	2	6	90	0.00	30.104 
03:25	22.5	22.5	22.5	68	13.6	3	10	90	0.00	30.104 
03:30	22.5	22.5	22.5	68	13.6	2	7	112	0.00	30.100 
03:35	22.5	22.5	22.5	68	13.6	3	6	112	0.00	30.100 
03:40	22.5	17.1	22.5	68	13.6	4	7	90	0.00	30.100 
03:45	22.5	22.5	22.5	68	13.6	3	7	90	0.00	30.091 
03:50	22.5	22.5	22.5	68	13.6	3	7	112	0.00	30.091 
03:55	22.5	22.5	22.5	68	13.6	3	7	112	0.00	30.091 
04:00	22.5	17.1	22.5	69	13.9	4	6	112	0.00	30.085 
04:05	22.5	22.5	22.5	69	13.9	3	7	90	0.00	30.085 
04:10	22.4	17.0	22.4	71	14.4	4	7	90	0.00	30.085 
04:15	22.2	16.8	22.2	74	15.2	4	9	90	0.00	30.084 
04:20	21.8	15.1	21.8	77	15.7	5	10	90	0.00	30.084 
04:25	21.4	15.8	21.4	79	15.9	4	12	90	0.00	30.084 
04:30	21.1	14.3	21.1	82	16.5	5	10	90	0.00	30.074 
04:35	21.0	15.4	21.0	83	16.7	4	10	90	0.00	30.074 
04:40	21.0	21.0	21.0	84	16.9	3	7	90	0.00	30.074 
04:45	20.8	15.1	20.8	85	17.0	4	10	112	0.00	30.060 
04:50	20.8	15.1	20.8	86	17.3	4	10	112	0.00	30.060 
04:55	20.6	13.7	20.6	86	17.1	5	10	112	0.00	30.060 
05:00	20.6	14.9	20.6	87	17.4	4	8	90	0.00	30.054 
05:05	20.6	14.9	20.6	87	17.4	4	10	112	0.00	30.054 
05:10	20.6	20.6	20.6	88	17.6	3	9	90	0.00	30.054 
05:15	20.6	20.6	20.6	88	17.6	3	6	90	0.00	30.042 
05:20	20.6	14.9	20.6	88	17.6	4	9	90	0.00	30.042 
05:25	20.6	20.6	20.6	88	17.6	3	10	90	0.00	30.042 
05:30	20.6	20.6	20.6	88	17.6	3	10	90	0.00	30.040 
05:35	20.6	13.7	20.6	88	17.6	5	12	112	0.00	30.040 
05:40	20.6	14.9	20.6	88	17.6	4	10	90	0.00	30.040 
05:45	20.6	20.6	20.6	89	17.9	3	10	90	0.00	30.026 
05:50	20.8	20.8	20.8	89	18.1	3	8	90	0.00	30.026 
05:55	20.8	20.8	20.8	89	18.1	2	9	90	0.00	30.026 
06:00	21.0	21.0	21.0	89	18.3	3	9	90	0.00	30.011 
06:05	21.0	15.4	21.0	89	18.3	4	11	90	0.00	30.011 
06:10	21.1	14.3	21.1	89	18.4	5	12	112	0.00	30.011 
06:15	21.3	14.5	21.3	89	18.6	5	10	90	0.00	30.010 
06:20	21.3	15.7	21.3	89	18.6	4	11	90	0.00	30.010 
06:25	21.3	15.7	21.3	89	18.6	4	11	112	0.00	30.010 
06:30	21.3	21.3	21.3	89	18.6	3	10	112	0.00	30.002 
06:35	21.3	14.5	21.3	89	18.6	5	11	90	0.00	30.002 
06:40	21.3	15.7	21.3	89	18.6	4	11	90	0.00	30.002 
06:45	21.4	14.6	21.4	90	18.9	5	11	90	0.00	29.995 
06:50	21.4	21.4	21.4	90	18.9	3	10	90	0.00	29.995 
06:55	21.4	21.4	21.4	90	18.9	3	9	90	0.00	29.995 
07:00	21.4	21.4	21.4	90	18.9	3	7	112	0.00	29.988 
07:05	21.4	15.8	21.4	90	18.9	4	10	112	0.00	29.988 
07:10	21.4	21.4	21.4	90	18.9	3	11	90	0.00	29.988 
07:15	21.4	21.4	21.4	90	18.9	3	11	90	0.00	29.992 
07:20	21.6	21.6	21.6	90	19.1	3	7	112	0.00	29.992 
07:25	21.6	16.1	21.6	90	19.1	4	10	90	0.00	29.992 
07:30	21.6	21.6	21.6	90	19.1	3	11	90	0.00	29.984 
07:35	21.6	16.1	21.6	90	19.1	4	10	90	0.00	29.984 
07:40	21.8	21.8	21.8	90	19.3	3	10	90	0.00	29.984 
07:45	21.8	16.3	21.8	90	19.3	4	12	112	0.00	29.982 
07:50	21.8	16.3	21.8	90	19.3	4	10	90	0.00	29.982 
07:55	21.9	16.4	21.9	90	19.4	4	10	90	0.00	29.982 
08:00	21.9	16.4	21.9	90	19.4	4	11	90	0.00	29.982 
08:05	21.9	15.2	21.9	90	19.4	5	10	112	0.00	29.982 
08:10	22.1	16.6	22.1	90	19.6	4	13	112	0.00	29.982 
08:15	22.1	16.6	22.1	90	19.6	4	11	90	0.00	29.977 
08:20	22.1	16.6	22.1	91	19.9	4	10	90	0.00	29.977 
08:25	22.1	16.6	22.1	91	19.9	4	10	90	0.00	29.977 
08:30	22.1	16.6	22.1	91	19.9	4	11	90	0.00	29.969 
08:35	22.1	16.6	22.1	91	19.9	4	11	112	0.00	29.969 
08:40	22.2	16.8	22.2	91	20.0	4	11	90	0.00	29.969 
08:45	22.2	16.8	22.2	91	20.0	4	9	90	0.00	29.963 
08:50	22.2	16.8	22.2	91	20.0	4	10	90	0.00	29.963 
08:55	22.4	17.0	22.4	91	20.2	4	9	90	0.00	29.963 
09:00	22.4	22.4	22.4	91	20.2	3	11	90	0.00	29.955 
09:05	22.5	15.9	22.5	91	20.3	5	11	90	0.00	29.955 
09:10	22.5	15.9	22.5	91	20.3	5	11	90	0.00	29.955 
09:15	22.5	17.1	22.5	91	20.3	4	10	112	0.00	29.946 
09:20	22.5	17.1	22.5	91	20.3	4	10	112	0.00	29.946 
09:25	22.7	22.7	22.7	91	20.5	2	7	90	0.00	29.946 
09:30	22.9	22.9	22.9	91	20.7	3	9	90	0.00	29.938 
09:35	22.9	22.9	22.9	91	20.7	3	10	90	0.00	29.938 
09:40	22.9	22.9	22.9	91	20.7	2	7	90	0.00	29.938 
09:45	22.9	22.9	22.9	91	20.7	3	11	112	0.00	29.930 
09:50	22.9	22.9	22.9	91	20.7	3	11	90	0.00	29.930 
09:55	22.9	17.6	22.9	91	20.7	4	13	112	0.00	29.930 
10:00	23.0	17.7	23.0	91	20.8	4	10	90	0.00	29.918 
10:05	23.0	17.7	23.0	91	20.8	4	10	112	0.00	29.918 
10:10	23.2	23.2	23.2	91	21.0	3	10	90	0.00	29.918 
10:15	23.2	17.9	23.2	91	21.0	4	9	90	0.00	29.906 
10:20	23.3	23.3	23.3	91	21.1	3	7	90	0.00	29.906 
10:25	23.6	23.6	23.6	91	21.4	3	10	112	0.00	29.906 
10:30	23.6	17.2	23.6	91	21.4	5	11	112	0.00	29.907 
10:35	23.6	18.4	23.6	91	21.4	4	10	90	0.00	29.907 
10:40	23.6	17.2	23.6	91	21.4	5	9	90	0.00	29.907 
10:45	23.6	18.4	23.6	91	21.4	4	10	90	0.00	29.902 
10:50	23.6	18.4	23.6	91	21.4	4	9	112	0.00	29.902 
10:55	23.6	17.2	23.6	91	21.4	5	11	90	0.00	29.902 
11:00	23.6	18.4	23.6	91	21.4	4	12	112	0.00	29.889 
11:05	23.8	23.8	23.8	91	21.6	3	10	112	0.00	29.889 
11:10	24.1	24.1	24.1	92	22.1	3	8	112	0.00	29.889 
11:15	24.1	19.0	24.1	91	21.9	4	11	112	0.00	29.877 
11:20	24.2	19.1	24.2	91	22.0	4	12	90	0.00	29.877 
11:25	24.2	17.9	24.2	91	22.0	5	10	90	0.00	29.877 
11:30	24.2	17.9	24.2	91	22.0	5	11	112	0.00	29.866 
11:35	24.4	16.3	24.4	91	22.2	7	14	112	0.00	29.866 
11:40	24.4	18.1	24.4	91	22.2	5	15	90	0.00	29.866 
11:45	24.7	18.5	24.7	92	22.7	5	10	90	0.00	29.850 
11:50	24.7	18.5	24.7	91	22.5	5	11	90	0.00	29.850 
11:55	25.0	25.0	25.0	92	23.0	3	7	112	0.00	29.850 
12:00	25.0	18.9	25.0	91	22.8	5	12	90	0.00	29.837 
12:05	25.0	18.9	25.0	91	22.8	5	12	112	0.00	29.837 
12:10	25.0	20.0	25.0	91	22.8	4	9	90	0.00	29.837 
12:15	25.1	19.0	25.1	91	22.9	5	13	90	0.00	29.820 
12:20	25.3	25.3	25.3	92	23.3	3	7	90	0.00	29.820 
12:25	25.3	19.2	25.3	91	23.0	5	15	90	0.00	29.820 
12:30	25.3	18.3	25.3	91	23.0	6	13	112	0.00	29.807 
12:35	25.4	19.3	25.4	91	23.1	5	11	112	0.00	29.807 
12:40	25.4	19.3	25.4	91	23.1	5	12	112	0.00	29.807 
12:45	25.4	19.3	25.4	91	23.1	5	11	112	0.00	29.802 
12:50	25.4	20.5	25.4	91	23.1	4	10	112	0.00	29.802 
12:55	25.6	20.7	25.6	91	23.3	4	9	90	0.00	29.802 
13:00	25.7	20.8	25.7	91	23.4	4	9	90	0.00	29.796 
13:05	25.8	25.8	25.8	91	23.5	3	10	90	0.00	29.796 
13:10	25.8	20.9	25.8	91	23.5	4	11	112	0.00	29.796 
13:15	25.7	20.8	25.7	91	23.4	4	7	90	0.00	29.784 
13:20	25.7	20.8	25.7	91	23.4	4	10	90	0.00	29.784 
13:25	25.7	25.7	25.7	91	23.4	3	10	112	0.00	29.784 
13:30	25.7	25.7	25.7	91	23.4	3	9	90	0.00	29.776 
13:35	25.8	25.8	25.8	91	23.5	2	6	90	0.00	29.776 
13:40	26.0	26.0	26.0	91	23.7	3	6	112	0.00	29.776 
13:45	26.0	26.0	26.0	91	23.7	3	7	90	0.00	29.769 
13:50	26.0	26.0	26.0	91	23.7	3	10	112	0.00	29.769 
13:55	26.0	26.0	26.0	91	23.7	3	7	112	0.00	29.769 
14:00	26.0	26.0	26.0	91	23.7	3	9	112	0.00	29.766 
14:05	25.8	20.9	25.8	91	23.5	4	10	90	0.00	29.766 
14:10	25.8	25.8	25.8	91	23.5	2	7	112	0.00	29.766 
14:15	26.0	26.0	26.0	91	23.7	2	6	112	0.00	29.754 
14:20	26.0	26.0	26.0	92	24.0	2	5	90	0.00	29.754 
14:25	26.0	26.0	26.0	92	24.0	2	5	90	0.00	29.754 
14:30	26.3	26.3	26.3	92	24.3	1	5	112	0.00	29.748 
14:35	26.3	26.3	26.3	91	24.0	3	6	90	0.00	29.748 
14:40	26.1	26.1	26.1	91	23.8	3	7	90	0.00	29.748 
14:45	26.1	26.1	26.1	92	24.1	3	9	90	0.00	29.740 
14:50	26.3	26.3	26.3	91	24.0	2	10	90	0.00	29.740 
14:55	26.3	26.3	26.3	91	24.0	3	6	112	0.00	29.740 
15:00	26.3	26.3	26.3	92	24.3	3	7	90	0.00	29.733 
15:05	26.4	26.4	26.4	92	24.4	2	4	90	0.00	29.733 
15:10	26.6	26.6	26.6	92	24.6	2	5	112	0.00	29.733 
15:15	26.4	26.4	26.4	92	24.4	3	6	90	0.00	29.728 
15:20	26.3	26.3	26.3	91	24.0	3	10	90	0.00	29.728 
15:25	26.4	26.4	26.4	92	24.4	2	5	112	0.00	29.728 
15:30	26.3	26.3	26.3	91	24.0	3	7	90	0.00	29.722 
15:35	26.3	26.3	26.3	92	24.3	2	6	112	0.00	29.722 
15:40	26.3	26.3	26.3	92	24.3	3	6	90	0.00	29.722 
15:45	26.4	26.4	26.4	92	24.4	1	5	90	0.00	29.709 
15:50	26.4	26.4	26.4	92	24.4	2	5	112	0.00	29.709 
15:55	26.3	26.3	26.3	92	24.3	3	7	90	0.00	29.709 
16:00	26.1	26.1	26.1	91	23.8	3	7	90	0.00	29.706 
16:05	26.0	26.0	26.0	92	24.0	3	7	112	0.00	29.706 
16:10	26.0	26.0	26.0	91	23.7	3	6	90	0.00	29.706 
16:15	25.8	25.8	25.8	92	23.8	2	5	90	0.00	29.702 
16:20	25.8	25.8	25.8	92	23.8	2	5	90	0.00	29.702 
16:25	25.8	25.8	25.8	92	23.8	2	3	90	0.00	29.702 
16:30	25.7	25.7	25.7	92	23.7	1	3	112	0.00	29.702 
16:35	25.7	25.7	25.7	92	23.7	1	3	112	0.00	29.702 
16:40	25.7	25.7	25.7	92	23.7	1	4	112	0.00	29.702 
16:45	25.6	25.6	25.6	92	23.6	1	3	112	0.00	29.700 
16:50	25.6	25.6	25.6	92	23.6	1	3	112	0.00	29.700 
16:55	25.6	25.6	25.6	92	23.6	1	3	112	0.00	29.700 
17:00	25.4	25.4	25.4	92	23.4	2	3	135	0.00	29.697 
17:05	25.4	25.4	25.4	92	23.4	2	4	90	0.00	29.697 
17:10	25.3	25.3	25.3	92	23.3	1	2	112	0.00	29.697 
17:15	25.3	25.3	25.3	92	23.3	0	2	112	0.00	29.696 
17:20	25.3	25.3	25.3	92	23.3	0	1	112	0.00	29.696 
17:25	25.3	25.3	25.3	92	23.3	0	0	---	0.00	29.696 
17:30	25.4	25.4	25.4	92	23.4	0	1	112	0.00	29.698 
17:35	25.4	25.4	25.4	92	23.4	0	0	---	0.00	29.698 
17:40	25.4	25.4	25.4	92	23.4	0	0	---	0.00	29.698 
17:45	25.4	25.4	25.4	92	23.4	0	0	---	0.00	29.693 
17:50	25.3	25.3	25.3	92	23.3	0	0	---	0.00	29.693 
17:55	25.3	25.3	25.3	92	23.3	0	0	---	0.00	29.693 
18:00	25.1	25.1	25.1	92	23.1	0	0	---	0.00	29.692 
18:05	25.1	25.1	25.1	92	23.1	0	0	---	0.00	29.692 
18:10	25.1	25.1	25.1	92	23.1	0	0	---	0.00	29.692 
18:15	25.0	25.0	25.0	92	23.0	0	0	---	0.00	29.692 
18:20	24.8	24.8	24.8	92	22.8	0	0	---	0.00	29.692 
18:25	24.8	24.8	24.8	92	22.8	0	0	---	0.00	29.692 
18:30	24.7	24.7	24.7	92	22.7	0	0	---	0.00	29.689 
18:35	24.7	24.7	24.7	92	22.7	0	0	---	0.00	29.689 
18:40	24.7	24.7	24.7	92	22.7	0	0	---	0.00	29.689 
18:45	24.5	24.5	24.5	92	22.5	0	0	---	0.00	29.687 
18:50	24.5	24.5	24.5	92	22.5	0	0	---	0.00	29.687 
18:55	24.5	24.5	24.5	92	22.5	0	0	---	0.00	29.687 
19:00	24.5	24.5	24.5	92	22.5	0	0	---	0.00	29.682 
19:05	24.5	24.5	24.5	92	22.5	0	0	---	0.00	29.682 
19:10	24.7	24.7	24.7	92	22.7	0	0	---	0.00	29.682 
19:15	24.7	24.7	24.7	92	22.7	0	0	---	0.00	29.678 
19:20	24.7	24.7	24.7	92	22.7	0	0	---	0.00	29.678 
19:25	24.7	24.7	24.7	92	22.7	0	0	---	0.00	29.678 
19:30	24.7	24.7	24.7	92	22.7	0	0	---	0.00	29.677 
19:35	24.7	24.7	24.7	92	22.7	0	0	---	0.00	29.677 
19:40	24.7	24.7	24.7	92	22.7	0	2	270	0.00	29.677 
19:45	24.7	24.7	24.7	92	22.7	0	1	270	0.00	29.675 
19:50	24.8	24.8	24.8	92	22.8	0	2	270	0.00	29.675 
19:55	24.8	24.8	24.8	92	22.8	0	2	270	0.00	29.675 
20:00	24.8	24.8	24.8	92	22.8	0	1	270	0.00	29.674 
20:05	24.7	24.7	24.7	92	22.7	0	1	270	0.00	29.674 
20:10	24.7	24.7	24.7	92	22.7	1	3	270	0.00	29.674 
20:15	24.7	24.7	24.7	92	22.7	1	3	248	0.00	29.668 
20:20	24.5	24.5	24.5	92	22.5	1	3	270	0.00	29.668 
20:25	24.5	24.5	24.5	92	22.5	1	3	248	0.00	29.668 
20:30	24.5	24.5	24.5	92	22.5	1	4	248	0.00	29.666 
20:35	24.5	24.5	24.5	92	22.5	1	3	270	0.00	29.666 
20:40	24.5	24.5	24.5	92	22.5	1	4	248	0.00	29.666 
20:45	24.5	24.5	24.5	92	22.5	1	3	248	0.00	29.665 
20:50	24.4	24.4	24.4	92	22.4	1	3	270	0.00	29.665 
20:55	24.4	24.4	24.4	92	22.4	1	4	248	0.00	29.665 
21:00	24.4	24.4	24.4	92	22.4	1	4	248	0.00	29.662 
21:05	24.4	24.4	24.4	92	22.4	1	4	248	0.00	29.662 
21:10	24.2	24.2	24.2	92	22.2	1	4	225	0.00	29.662 
21:15	24.2	24.2	24.2	91	22.0	1	4	270	0.00	29.661 
21:20	24.1	24.1	24.1	91	21.9	1	3	270	0.00	29.661 
21:25	23.9	23.9	23.9	91	21.7	2	4	248	0.00	29.661 
21:30	23.8	23.8	23.8	91	21.6	2	6	270	0.00	29.661 
21:35	23.5	23.5	23.5	91	21.3	3	6	248	0.00	29.661 
21:40	22.2	16.8	22.2	90	19.7	4	10	270	0.00	29.661 
21:45	21.3	15.7	21.3	89	18.6	4	7	248	0.00	29.665 
21:50	20.5	20.5	20.5	89	17.8	3	9	248	0.00	29.665 
21:55	19.5	13.6	19.5	89	16.8	4	11	248	0.00	29.665 
22:00	19.1	19.1	19.1	89	16.4	3	11	248	0.00	29.668 
22:05	18.6	18.6	18.6	88	15.6	3	8	248	0.00	29.668 
22:10	18.0	18.0	18.0	88	15.1	3	7	248	0.00	29.668 
22:15	17.5	17.5	17.5	88	14.6	3	9	248	0.00	29.669 
22:20	17.0	9.5	17.0	88	14.1	5	11	270	0.00	29.669 
22:25	16.7	10.4	16.7	87	13.5	4	7	248	0.00	29.669 
22:30	16.5	16.5	16.5	87	13.3	3	11	248	0.00	29.671 
22:35	16.4	16.4	16.4	87	13.2	3	9	248	0.00	29.671 
22:40	16.2	16.2	16.2	87	13.0	3	12	248	0.00	29.671 
22:45	15.9	15.9	15.9	86	12.5	3	6	248	0.00	29.673 
22:50	15.6	9.1	15.6	86	12.2	4	10	248	0.00	29.673 
22:55	15.4	8.9	15.4	86	12.0	4	7	248	0.00	29.673 
23:00	15.2	8.7	15.2	86	11.8	4	7	248	0.00	29.679 
23:05	15.1	8.6	15.1	86	11.7	4	11	248	0.00	29.679 
23:10	14.9	8.3	14.9	86	11.5	4	11	248	0.00	29.679 
23:15	14.6	8.0	14.6	86	11.2	4	13	270	0.00	29.672 
23:20	14.4	7.7	14.4	86	11.0	4	11	248	0.00	29.672 
23:25	14.3	14.3	14.3	86	10.9	3	10	248	0.00	29.672 
23:30	14.1	14.1	14.1	86	10.7	3	7	248	0.00	29.677 
23:35	14.1	14.1	14.1	86	10.7	3	7	248	0.00	29.677 
23:40	14.0	7.3	14.0	85	10.3	4	9	248	0.00	29.677 
23:45	13.8	13.8	13.8	85	10.1	3	7	248	0.00	29.677 
23:50	13.6	13.6	13.6	85	9.9	3	7	248	0.00	29.677 
23:55	13.5	6.7	13.5	85	9.8	4	10	248	0.00	29.677 

CoCoRaHS
IN-AL-39
A2 Web Hosting
Creative Commons License
GoDaddy
search engine by freefind advanced

loaded 2018-11-20 15:01:46 • last modified 2010-11-18 10:43:29
Privacy PolicyDisclaimer
• wx.awcolley.com is powered by PmWiki v.2002016 •
• all content (unless otherwise noted) © 2018 A W Colley